Time;durP1;ratioP1;P1;durP2;ratioP2;P2;SDS_P1;SDS_P2;PMS_P1;PMS_P2;Temp;Humidity;BMP_temperature;BMP_pressure;BME280_temperature;BME280_humidity;BME280_pressure;Samples;Min_cycle;Max_cycle;Signal;HPM_P1;HPM_P2
2022/07/18 00:01:59;;;;;;;4.10;2.00;;;16.30;99.90;;;;;;5098847;27;20063;-95
2022/07/18 00:04:26;;;;;;;4.68;2.45;;;16.30;99.90;;;;;;5068212;27;20050;-96
2022/07/18 00:06:53;;;;;;;6.47;2.92;;;16.20;99.90;;;;;;5106160;27;20047;-96
2022/07/18 00:09:19;;;;;;;4.15;2.95;;;16.20;99.90;;;;;;5106392;27;20054;-96
2022/07/18 00:11:45;;;;;;;4.72;2.33;;;15.60;99.90;;;;;;5113383;27;20052;-96
2022/07/18 00:14:12;;;;;;;4.13;3.03;;;16.10;99.90;;;;;;5127401;27;20027;-96
2022/07/18 00:16:38;;;;;;;5.57;3.28;;;16.10;99.90;;;;;;5125415;27;20070;-96
2022/07/18 00:19:05;;;;;;;6.13;2.72;;;16.10;99.90;;;;;;5123715;27;20047;-96
2022/07/18 00:21:34;;;;;;;4.45;2.53;;;16.10;99.90;;;;;;5101064;27;20054;-96
2022/07/18 00:24:00;;;;;;;5.55;3.35;;;17.10;99.90;;;;;;5103884;27;20039;-96
2022/07/18 00:26:26;;;;;;;3.60;2.30;;;17.20;99.90;;;;;;5103652;27;20040;-96
2022/07/18 00:28:52;;;;;;;4.10;2.85;;;16.00;99.90;;;;;;5108020;27;20086;-96
2022/07/18 00:31:18;;;;;;;4.53;2.80;;;16.00;99.90;;;;;;5107800;28;20055;-96
2022/07/18 00:33:44;;;;;;;4.13;2.58;;;16.00;99.90;;;;;;5117821;28;20056;-95
2022/07/18 00:36:10;;;;;;;3.28;2.28;;;15.80;99.90;;;;;;5110857;28;20492;-95
2022/07/18 00:38:36;;;;;;;4.15;2.60;;;15.90;99.90;;;;;;5092421;28;20058;-96
2022/07/18 00:41:02;;;;;;;7.93;2.92;;;15.90;99.90;;;;;;5076414;28;20047;-95
2022/07/18 00:43:28;;;;;;;4.13;2.30;;;15.90;99.90;;;;;;5091159;28;20108;-96
2022/07/18 00:45:53;;;;;;;4.25;2.95;;;15.90;99.90;;;;;;5095763;28;20039;-96
2022/07/18 00:48:20;;;;;;;4.47;2.67;;;16.60;99.90;;;;;;5112320;28;20039;-96
2022/07/18 00:50:47;;;;;;;4.13;3.08;;;15.90;99.90;;;;;;5134776;28;20054;-96
2022/07/18 00:53:16;;;;;;;4.70;3.13;;;15.20;99.90;;;;;;5119675;28;20089;-96
2022/07/18 00:55:46;;;;;;;9.13;3.60;;;15.80;99.90;;;;;;5138739;28;20099;-96
2022/07/18 00:58:13;;;;;;;4.82;2.35;;;15.20;99.90;;;;;;5121871;28;20028;-96
2022/07/18 01:03:24;;;;;;;4.28;2.60;;;14.90;99.90;;;;;;5137464;28;20031;-96
2022/07/18 01:05:50;;;;;;;4.07;2.80;;;15.10;99.90;;;;;;5120693;28;20055;-96
2022/07/18 01:08:16;;;;;;;6.68;3.00;;;15.70;99.90;;;;;;5120084;28;20103;-96
2022/07/18 01:10:42;;;;;;;6.43;3.35;;;15.70;99.90;;;;;;5120980;28;20046;-96
2022/07/18 01:13:11;;;;;;;5.88;3.55;;;15.70;99.90;;;;;;5120812;28;20031;-95
2022/07/18 01:15:42;;;;;;;4.10;3.17;;;15.70;99.90;;;;;;5137688;28;20034;-96
2022/07/18 01:18:08;;;;;;;7.03;3.33;;;14.80;99.90;;;;;;5120383;28;20046;-96
2022/07/18 01:20:34;;;;;;;5.03;3.13;;;15.70;99.90;;;;;;5121508;28;20028;-95
2022/07/18 01:23:00;;;;;;;7.03;3.50;;;14.70;99.90;;;;;;5138360;28;20036;-96
2022/07/18 01:25:26;;;;;;;6.20;3.20;;;15.60;99.90;;;;;;5120544;28;20036;-96
2022/07/18 01:27:53;;;;;;;5.38;3.10;;;15.60;99.90;;;;;;5137221;28;20063;-96
2022/07/18 01:30:21;;;;;;;7.07;3.20;;;15.60;99.90;;;;;;5120359;28;20035;-90
2022/07/18 01:32:58;;;;;;;5.82;2.70;;;14.90;99.90;;;;;;5115576;27;20047;-96
2022/07/18 01:35:24;;;;;;;4.68;3.28;;;14.60;99.90;;;;;;5121422;27;20035;-95
2022/07/18 01:37:57;;;;;;;6.32;3.47;;;15.60;99.90;;;;;;5109572;27;20023;-95
2022/07/18 01:40:24;;;;;;;8.23;3.30;;;15.10;99.90;;;;;;5133266;27;20043;-96
2022/07/18 01:42:51;;;;;;;6.93;2.88;;;15.60;99.90;;;;;;5101536;27;20078;-96
2022/07/18 01:45:17;;;;;;;5.45;3.63;;;16.30;99.90;;;;;;5135771;27;20038;-95
2022/07/18 01:47:43;;;;;;;5.60;3.63;;;14.70;99.90;;;;;;5139069;27;20038;-95
2022/07/18 01:50:10;;;;;;;4.43;3.35;;;15.50;99.90;;;;;;5123673;27;20099;-96
2022/07/18 01:52:37;;;;;;;5.47;3.10;;;15.40;99.90;;;;;;5124219;27;20047;-96
2022/07/18 01:55:05;;;;;;;8.32;3.70;;;15.40;99.90;;;;;;5141034;27;20068;-96
2022/07/18 01:57:31;;;;;;;7.20;3.15;;;15.10;99.90;;;;;;5137242;27;20140;-96
2022/07/18 01:59:57;;;;;;;4.85;3.28;;;15.40;99.90;;;;;;5113882;27;20035;-95
2022/07/18 02:02:23;;;;;;;4.57;3.28;;;15.40;99.90;;;;;;5117448;27;20073;-95
2022/07/18 02:05:02;;;;;;;4.25;3.03;;;15.40;99.90;;;;;;5111907;27;20507;-95
2022/07/18 02:07:40;;;;;;;4.65;3.45;;;15.80;99.90;;;;;;5093113;27;20043;-96
2022/07/18 02:10:12;;;;;;;5.35;3.55;;;14.90;99.90;;;;;;5094478;27;20049;-96
2022/07/18 02:12:39;;;;;;;4.57;2.60;;;15.40;99.90;;;;;;5094079;27;20073;-95
2022/07/18 02:15:06;;;;;;;4.90;2.83;;;15.70;99.90;;;;;;5112731;27;20035;-96
2022/07/18 02:17:33;;;;;;;6.03;3.13;;;15.30;99.90;;;;;;5076257;28;20446;-96
2022/07/18 02:19:58;;;;;;;3.75;2.65;;;15.30;99.90;;;;;;5111013;28;20075;-96
2022/07/18 02:22:24;;;;;;;4.22;2.60;;;15.30;99.90;;;;;;5093669;28;20125;-94
2022/07/18 02:24:54;;;;;;;4.78;3.05;;;15.20;99.90;;;;;;5110414;28;20066;-96
2022/07/18 02:27:20;;;;;;;4.00;3.40;;;15.20;99.90;;;;;;5100275;28;20054;-96
2022/07/18 02:29:46;;;;;;;7.43;3.65;;;15.20;99.90;;;;;;5141100;28;20051;-96
2022/07/18 02:32:12;;;;;;;5.57;3.20;;;15.20;99.90;;;;;;5102040;28;20048;-96
2022/07/18 02:34:38;;;;;;;7.80;3.42;;;15.20;99.90;;;;;;5095021;28;20044;-96
2022/07/18 02:37:04;;;;;;;6.25;3.78;;;15.20;99.90;;;;;;5109914;28;20046;-96
2022/07/18 02:39:30;;;;;;;6.72;3.90;;;15.20;99.90;;;;;;5119511;28;20035;-96
2022/07/18 02:41:56;;;;;;;6.95;4.10;;;15.20;99.90;;;;;;5098596;28;20044;-96
2022/07/18 02:44:22;;;;;;;6.75;4.05;;;15.30;99.90;;;;;;5100500;28;20051;-96
2022/07/18 02:46:49;;;;;;;9.68;4.30;;;14.80;99.90;;;;;;5100881;28;20046;-96
2022/07/18 02:49:26;;;;;;;5.70;3.83;;;15.30;99.90;;;;;;5096912;28;20036;-96
2022/07/18 02:51:54;;;;;;;5.35;3.58;;;16.30;99.90;;;;;;5105762;28;20043;-95
2022/07/18 02:54:20;;;;;;;5.07;4.05;;;15.40;99.90;;;;;;5072099;28;20044;-95
2022/07/18 02:56:46;;;;;;;8.52;4.35;;;15.50;99.90;;;;;;5104859;28;20044;-94
2022/07/18 02:59:12;;;;;;;7.10;4.20;;;15.50;99.90;;;;;;5071330;28;20116;-92
2022/07/18 03:01:37;;;;;;;6.72;3.85;;;15.50;99.90;;;;;;5075235;28;20039;-95
2022/07/18 03:04:03;;;;;;;6.55;3.78;;;16.20;99.90;;;;;;5091239;28;20043;-95
2022/07/18 03:06:29;;;;;;;6.80;4.15;;;15.50;99.90;;;;;;5092101;28;20043;-94
2022/07/18 03:08:55;;;;;;;7.88;4.22;;;15.50;99.90;;;;;;5091616;28;20040;-96
2022/07/18 03:11:20;;;;;;;5.47;3.42;;;15.60;99.90;;;;;;5092743;28;20410;-93
2022/07/18 03:13:46;;;;;;;6.63;3.40;;;15.40;99.90;;;;;;5071250;28;20111;-96
2022/07/18 03:16:11;;;;;;;6.50;3.65;;;15.40;99.90;;;;;;5106886;28;20046;-95
2022/07/18 03:18:37;;;;;;;7.60;3.83;;;15.40;99.90;;;;;;5077980;28;20090;-94
2022/07/18 03:21:03;;;;;;;6.03;4.00;;;15.40;99.90;;;;;;5091466;28;20094;-95
2022/07/18 03:23:28;;;;;;;7.20;3.83;;;15.40;99.90;;;;;;5093977;28;20042;-94
2022/07/18 03:25:54;;;;;;;6.78;4.03;;;16.00;99.90;;;;;;5083008;28;20116;-94
2022/07/18 03:28:20;;;;;;;7.03;4.25;;;15.50;99.90;;;;;;5100494;28;20051;-96
2022/07/18 03:30:46;;;;;;;6.25;3.70;;;15.60;99.90;;;;;;5062106;28;20109;-93
2022/07/18 03:33:12;;;;;;;6.68;3.92;;;15.60;99.90;;;;;;5063057;28;20044;-93
2022/07/18 03:35:39;;;;;;;11.15;4.68;;;15.70;99.90;;;;;;5079620;28;20526;-94
2022/07/18 03:38:05;;;;;;;10.43;4.22;;;16.70;99.90;;;;;;5063066;28;20132;-94
2022/07/18 03:40:31;;;;;;;8.35;4.10;;;15.60;99.90;;;;;;5079984;28;20079;-95
2022/07/18 03:42:57;;;;;;;4.90;3.47;;;15.70;99.90;;;;;;5078999;28;20485;-95
2022/07/18 03:45:22;;;;;;;7.72;4.05;;;15.70;99.90;;;;;;5097113;28;20091;-94
2022/07/18 03:47:48;;;;;;;8.60;4.55;;;15.60;99.90;;;;;;5095269;28;20036;-96
2022/07/18 03:50:14;;;;;;;7.88;4.30;;;15.60;99.90;;;;;;5080558;28;20483;-94
2022/07/18 03:52:40;;;;;;;8.23;4.25;;;15.60;99.90;;;;;;5105219;28;20024;-96
2022/07/18 03:55:07;;;;;;;8.48;4.15;;;15.60;99.90;;;;;;5100778;28;20056;-96
2022/07/18 03:57:33;;;;;;;8.90;4.53;;;15.60;99.90;;;;;;5103558;28;20039;-95
2022/07/18 04:00:04;;;;;;;8.52;4.05;;;15.60;99.90;;;;;;5104031;28;20040;-96
2022/07/18 04:02:30;;;;;;;8.73;4.85;;;15.60;99.90;;;;;;5087220;28;20050;-96
2022/07/18 04:04:55;;;;;;;8.38;4.57;;;15.60;99.90;;;;;;5081318;28;20044;-94
2022/07/18 04:07:37;;;;;;;13.68;4.05;;;16.40;99.90;;;;;;5092161;28;20398;-96
2022/07/18 04:10:08;;;;;;;6.50;3.97;;;15.70;99.90;;;;;;5111922;28;20127;-96
2022/07/18 04:12:44;;;;;;;6.63;3.70;;;14.80;99.90;;;;;;5110989;28;20047;-95
2022/07/18 04:15:10;;;;;;;5.63;3.58;;;15.60;99.90;;;;;;5093939;28;20040;-94
2022/07/18 04:17:40;;;;;;;7.35;3.63;;;15.70;99.90;;;;;;5092232;28;20036;-96
2022/07/18 04:20:09;;;;;;;7.35;3.20;;;15.80;99.90;;;;;;5093529;28;20037;-96
2022/07/18 04:22:46;;;;;;;6.80;4.03;;;15.80;99.90;;;;;;5085094;28;20052;-95
2022/07/18 04:25:12;;;;;;;5.10;3.53;;;16.30;99.90;;;;;;5084158;28;20064;-93
2022/07/18 04:27:39;;;;;;;8.15;3.47;;;15.00;99.90;;;;;;5085185;28;20097;-95
2022/07/18 04:30:09;;;;;;;6.07;3.25;;;15.40;99.90;;;;;;5087084;28;20064;-96
2022/07/18 04:35:44;;;;;;;6.25;3.50;;;16.10;99.90;;;;;;5120119;28;20059;-95
2022/07/18 04:39:03;;;;;;;10.88;3.80;;;16.20;99.90;;;;;;5114959;28;20046;-95
2022/07/18 04:41:28;;;;;;;6.50;3.90;;;16.20;99.90;;;;;;5040055;28;20059;-88
2022/07/18 04:43:55;;;;;;;6.03;3.00;;;16.40;99.90;;;;;;5036062;28;20052;-90
2022/07/18 04:46:21;;;;;;;4.90;3.17;;;16.40;99.90;;;;;;5022119;28;20152;-93
2022/07/18 04:48:52;;;;;;;8.52;3.50;;;16.60;99.90;;;;;;5039254;28;20102;-93
2022/07/18 04:51:18;;;;;;;5.70;3.47;;;16.70;99.90;;;;;;5055047;28;20040;-92
2022/07/18 04:53:44;;;;;;;4.57;3.20;;;16.70;99.90;;;;;;5022509;28;20063;-90
2022/07/18 04:56:10;;;;;;;4.10;2.58;;;16.70;99.90;;;;;;5038609;28;20615;-89
2022/07/18 04:58:35;;;;;;;6.47;2.60;;;16.80;99.90;;;;;;5040122;28;20428;-92
2022/07/18 05:01:01;;;;;;;12.45;3.22;;;16.80;99.90;;;;;;5056059;28;20040;-93
2022/07/18 05:03:29;;;;;;;4.32;2.55;;;16.80;99.90;;;;;;5041160;28;20059;-94
2022/07/18 05:05:54;;;;;;;6.10;2.45;;;17.00;99.90;;;;;;5055365;28;20079;-88
2022/07/18 05:08:20;;;;;;;5.15;2.22;;;17.00;99.90;;;;;;5031050;28;20611;-90
2022/07/18 05:10:46;;;;;;;4.70;2.03;;;17.50;99.90;;;;;;5015250;28;20052;-89
2022/07/18 05:13:12;;;;;;;3.78;1.98;;;17.10;99.90;;;;;;5018301;28;20044;-87
2022/07/18 05:15:37;;;;;;;5.47;2.70;;;17.20;99.90;;;;;;5016014;28;20055;-93
2022/07/18 05:18:03;;;;;;;3.78;2.97;;;17.30;99.90;;;;;;5013277;28;20045;-88
2022/07/18 05:20:29;;;;;;;4.82;2.20;;;17.30;99.90;;;;;;5013993;28;20044;-90
2022/07/18 05:22:54;;;;;;;4.15;2.20;;;17.40;99.90;;;;;;5013795;28;20044;-95
2022/07/18 05:25:24;;;;;;;4.55;2.10;;;18.20;99.90;;;;;;5044501;28;20091;-96
2022/07/18 05:27:51;;;;;;;3.40;1.67;;;17.60;99.90;;;;;;5071934;28;20130;-91
2022/07/18 05:30:17;;;;;;;4.88;2.10;;;17.60;99.90;;;;;;5087456;28;20041;-91
2022/07/18 05:32:44;;;;;;;4.28;1.65;;;17.70;99.90;;;;;;5071311;28;20052;-91
2022/07/18 05:35:11;;;;;;;5.40;1.98;;;17.70;99.90;;;;;;5087530;28;20043;-91
2022/07/18 05:37:40;;;;;;;3.92;1.63;;;17.80;99.90;;;;;;5072752;28;20047;-90
2022/07/18 05:40:09;;;;;;;4.25;1.63;;;17.90;99.90;;;;;;5071121;28;20040;-90
2022/07/18 05:42:35;;;;;;;6.22;1.80;;;17.90;99.90;;;;;;5104690;28;20050;-88
2022/07/18 05:45:00;;;;;;;4.45;2.33;;;18.00;99.90;;;;;;5054408;28;20124;-92
2022/07/18 05:47:26;;;;;;;4.72;1.92;;;18.10;99.90;;;;;;5070714;28;20043;-90
2022/07/18 05:49:52;;;;;;;3.42;1.67;;;18.20;99.90;;;;;;5070604;28;20120;-88
2022/07/18 05:52:17;;;;;;;4.22;1.80;;;18.70;99.90;;;;;;5086429;28;20050;-83
2022/07/18 05:54:43;;;;;;;3.15;1.77;;;18.30;99.90;;;;;;5106249;28;20040;-86
2022/07/18 05:57:09;;;;;;;3.35;1.80;;;18.30;99.90;;;;;;5088536;28;20036;-87
2022/07/18 05:59:35;;;;;;;3.97;1.77;;;18.40;99.90;;;;;;5088644;28;20054;-86
2022/07/18 06:02:01;;;;;;;3.17;1.70;;;18.50;99.90;;;;;;5089706;28;20043;-86
2022/07/18 06:04:27;;;;;;;4.45;1.65;;;18.50;99.90;;;;;;5071203;28;20514;-86
2022/07/18 06:06:52;;;;;;;2.47;0.90;;;18.60;99.90;;;;;;5070974;28;20126;-87
2022/07/18 06:09:18;;;;;;;2.78;1.60;;;18.70;99.90;;;;;;5087764;28;20051;-87
2022/07/18 06:11:44;;;;;;;4.03;1.55;;;18.80;99.90;;;;;;5089392;28;20504;-86
2022/07/18 06:14:10;;;;;;;5.38;1.65;;;18.90;99.90;;;;;;5105030;28;20508;-87
2022/07/18 06:16:39;;;;;;;3.28;1.25;;;19.10;99.90;;;;;;5106076;28;20176;-85
2022/07/18 06:19:04;;;;;;;3.28;1.50;;;19.20;99.90;;;;;;5089323;28;20054;-86
2022/07/18 06:21:30;;;;;;;3.22;1.55;;;19.30;99.90;;;;;;5089410;28;20258;-87
2022/07/18 06:23:56;;;;;;;2.90;1.63;;;19.40;99.90;;;;;;5089308;28;20048;-87
2022/07/18 06:26:21;;;;;;;4.35;1.50;;;19.50;99.90;;;;;;5086603;28;20051;-86
2022/07/18 06:28:47;;;;;;;6.60;1.80;;;19.70;99.90;;;;;;5072913;28;20043;-86
2022/07/18 06:31:16;;;;;;;2.53;1.17;;;19.80;99.90;;;;;;5086098;28;20586;-85
2022/07/18 06:33:42;;;;;;;4.50;1.70;;;20.00;99.90;;;;;;5071140;28;20044;-86
2022/07/18 06:36:08;;;;;;;5.90;1.70;;;20.10;99.90;;;;;;5074285;28;20044;-87
2022/07/18 06:38:34;;;;;;;3.20;1.65;;;20.30;99.90;;;;;;5073444;28;20040;-86
2022/07/18 06:41:00;;;;;;;3.30;1.02;;;20.60;99.90;;;;;;5073471;28;20075;-86
2022/07/18 06:43:26;;;;;;;4.57;1.48;;;20.60;99.90;;;;;;5071416;28;20079;-86
2022/07/18 06:45:52;;;;;;;9.55;1.65;;;20.70;99.90;;;;;;5072016;28;20052;-86
2022/07/18 06:48:18;;;;;;;6.88;1.52;;;20.80;99.90;;;;;;5055562;28;20036;-85
2022/07/18 06:50:44;;;;;;;2.75;1.17;;;20.90;99.70;;;;;;5071626;28;20036;-85
2022/07/18 06:53:10;;;;;;;10.52;1.45;;;21.00;99.20;;;;;;5070608;28;20479;-86
2022/07/18 06:55:36;;;;;;;2.70;1.00;;;21.00;99.00;;;;;;5070797;28;20051;-85
2022/07/18 06:58:01;;;;;;;8.02;1.33;;;21.10;98.40;;;;;;5088047;28;20054;-87
2022/07/18 07:00:28;;;;;;;2.67;1.13;;;21.10;98.20;;;;;;5070489;28;20066;-85
2022/07/18 07:02:53;;;;;;;5.28;1.25;;;21.10;97.60;;;;;;5070944;28;20086;-86
2022/07/18 07:05:20;;;;;;;3.40;0.85;;;21.20;96.90;;;;;;5087789;28;20048;-86
2022/07/18 07:07:48;;;;;;;8.43;1.10;;;21.30;96.70;;;;;;5090315;28;20043;-86
2022/07/18 07:10:15;;;;;;;4.35;1.02;;;21.50;96.40;;;;;;5079339;28;20052;-85
2022/07/18 07:12:47;;;;;;;2.83;1.20;;;21.70;96.00;;;;;;5071304;28;20296;-86
2022/07/18 07:15:14;;;;;;;2.63;0.98;;;21.70;95.00;;;;;;5087361;28;20048;-85
2022/07/18 07:17:39;;;;;;;2.30;0.77;;;21.80;95.60;;;;;;5069733;28;20052;-86
2022/07/18 07:20:07;;;;;;;3.50;1.30;;;21.90;95.20;;;;;;5087895;28;20089;-85
2022/07/18 07:22:43;;;;;;;7.47;1.20;;;21.90;94.70;;;;;;5069974;28;20177;-85
2022/07/18 07:25:09;;;;;;;4.53;1.27;;;21.90;93.80;;;;;;5069720;28;20047;-86
2022/07/18 07:27:35;;;;;;;1.85;1.00;;;22.00;94.10;;;;;;5069884;28;20131;-86
2022/07/18 07:30:01;;;;;;;2.95;1.33;;;22.10;93.70;;;;;;5069264;28;20557;-86
2022/07/18 07:32:26;;;;;;;5.15;1.10;;;22.20;93.10;;;;;;5087681;28;20052;-85
2022/07/18 07:34:52;;;;;;;4.72;0.95;;;22.30;92.30;;;;;;5089582;28;20052;-86
2022/07/18 07:37:18;;;;;;;4.28;1.02;;;22.40;91.80;;;;;;5107188;28;20185;-85
2022/07/18 07:39:44;;;;;;;5.43;1.02;;;22.60;92.20;;;;;;5106466;28;20486;-85
2022/07/18 07:42:09;;;;;;;9.88;1.50;;;22.70;91.60;;;;;;5089979;28;20047;-86
2022/07/18 07:44:35;;;;;;;1.42;0.77;;;22.80;91.30;;;;;;5106438;28;20040;-85
2022/07/18 07:47:01;;;;;;;2.08;0.80;;;22.80;90.90;;;;;;5055182;28;20130;-86
2022/07/18 07:49:26;;;;;;;3.55;1.23;;;22.90;91.00;;;;;;5072778;28;20043;-85
2022/07/18 07:51:52;;;;;;;3.60;1.20;;;22.90;90.80;;;;;;5106155;28;20079;-86
2022/07/18 07:54:18;;;;;;;2.58;0.93;;;22.90;90.10;;;;;;5090208;28;20036;-90
2022/07/18 07:56:43;;;;;;;5.60;1.30;;;23.00;90.00;;;;;;5089998;28;20538;-89
2022/07/18 07:59:09;;;;;;;2.50;1.13;;;23.00;89.80;;;;;;5107506;28;20047;-88
2022/07/18 08:01:35;;;;;;;3.97;1.48;;;23.20;90.10;;;;;;5089230;28;20483;-87
2022/07/18 08:04:00;;;;;;;4.57;1.67;;;23.30;89.60;;;;;;5072528;28;20039;-88
2022/07/18 08:06:26;;;;;;;2.83;1.02;;;23.40;90.00;;;;;;5055986;28;20039;-88
2022/07/18 08:08:52;;;;;;;3.90;1.10;;;23.60;88.80;;;;;;5071878;28;20096;-88
2022/07/18 08:11:18;;;;;;;4.65;1.17;;;23.70;89.50;;;;;;5107144;28;20036;-87
2022/07/18 08:13:43;;;;;;;1.45;0.85;;;23.80;89.70;;;;;;5089309;28;20080;-88
2022/07/18 08:16:09;;;;;;;3.42;1.38;;;23.80;89.30;;;;;;5072641;28;20050;-87
2022/07/18 08:18:35;;;;;;;3.33;1.25;;;23.80;88.30;;;;;;5089056;28;20051;-88
2022/07/18 08:21:00;;;;;;;2.70;0.90;;;23.90;88.30;;;;;;5072395;28;20115;-88
2022/07/18 08:23:26;;;;;;;2.33;0.95;;;23.90;87.90;;;;;;5106276;28;20047;-87
2022/07/18 08:25:52;;;;;;;3.75;1.48;;;24.10;84.90;;;;;;5088966;28;20040;-89
2022/07/18 08:28:18;;;;;;;4.03;0.82;;;24.20;83.20;;;;;;5089615;28;20051;-88
2022/07/18 08:30:44;;;;;;;2.45;0.93;;;24.40;82.50;;;;;;5056688;28;20066;-88
2022/07/18 08:33:09;;;;;;;6.72;0.98;;;24.70;80.10;;;;;;5073857;28;20056;-88
2022/07/18 08:35:35;;;;;;;4.43;1.10;;;25.00;76.90;;;;;;5089219;28;20078;-87
2022/07/18 08:38:02;;;;;;;3.15;1.10;;;25.10;73.90;;;;;;5089185;28;20054;-87
2022/07/18 08:40:28;;;;;;;4.00;1.10;;;25.30;71.30;;;;;;5088453;28;20040;-88
2022/07/18 08:42:55;;;;;;;2.30;1.00;;;25.40;70.80;;;;;;5088446;28;20063;-87
2022/07/18 08:45:22;;;;;;;5.78;1.02;;;25.50;71.00;;;;;;5106428;28;20044;-87
2022/07/18 08:47:49;;;;;;;3.80;1.00;;;25.60;69.90;;;;;;5087701;28;20131;-87
2022/07/18 08:50:15;;;;;;;2.08;0.80;;;25.60;67.80;;;;;;5089277;28;20168;-88
2022/07/18 08:52:41;;;;;;;6.18;0.90;;;25.50;65.30;;;;;;5088895;28;20051;-87
2022/07/18 08:55:08;;;;;;;3.83;1.08;;;25.50;65.30;;;;;;5072095;28;20522;-88
2022/07/18 08:57:34;;;;;;;2.65;0.85;;;25.40;64.70;;;;;;5070638;28;20048;-87
2022/07/18 09:00:04;;;;;;;3.05;1.00;;;25.40;64.80;;;;;;5072682;28;20054;-87
2022/07/18 09:02:31;;;;;;;5.75;0.80;;;25.40;65.30;;;;;;5075498;28;20066;-87
2022/07/18 09:04:59;;;;;;;4.85;0.88;;;25.30;65.70;;;;;;5095382;28;20122;-87
2022/07/18 09:07:30;;;;;;;4.95;1.48;;;25.40;65.40;;;;;;5074752;28;20039;-88
2022/07/18 09:09:59;;;;;;;3.13;0.90;;;25.40;64.00;;;;;;5088131;28;20136;-87
2022/07/18 09:12:26;;;;;;;3.28;1.00;;;25.40;64.40;;;;;;5105788;28;20065;-87
2022/07/18 09:14:53;;;;;;;2.90;0.90;;;25.40;64.70;;;;;;5071730;28;20036;-87
2022/07/18 09:17:24;;;;;;;9.65;0.90;;;25.50;64.10;;;;;;5104834;28;20047;-87
2022/07/18 09:20:15;;;;;;;4.67;0.97;;;25.40;62.10;;;;;;5089085;28;20132;-88
2022/07/18 09:22:43;;;;;;;1.67;0.90;;;25.40;60.50;;;;;;5071947;28;20052;-87
2022/07/18 09:25:20;;;;;;;6.80;0.93;;;25.50;61.10;;;;;;5088838;28;20119;-87
2022/07/18 09:27:51;;;;;;;2.80;0.98;;;25.50;61.50;;;;;;5089799;28;20044;-87
2022/07/18 09:30:29;;;;;;;2.47;0.57;;;25.50;62.20;;;;;;5105953;28;20054;-87
2022/07/18 09:33:04;;;;;;;4.45;1.20;;;25.70;61.80;;;;;;5089287;28;20047;-87
2022/07/18 09:35:44;;;;;;;2.75;0.80;;;25.80;61.10;;;;;;5105262;28;20043;-88
2022/07/18 09:38:12;;;;;;;1.50;0.80;;;25.90;61.60;;;;;;5088236;28;20036;-87
2022/07/18 09:40:44;;;;;;;2.88;1.00;;;26.00;62.20;;;;;;5088290;28;20048;-87
2022/07/18 09:43:14;;;;;;;3.58;1.00;;;26.00;61.80;;;;;;5087650;28;20050;-86
2022/07/18 09:45:42;;;;;;;3.83;1.02;;;26.10;62.10;;;;;;5104761;28;20042;-88
2022/07/18 09:48:10;;;;;;;2.40;1.00;;;26.20;61.00;;;;;;5087576;28;20039;-87
2022/07/18 09:50:40;;;;;;;2.92;0.95;;;26.20;60.30;;;;;;5104839;28;20044;-87
2022/07/18 09:53:23;;;;;;;3.80;1.13;;;26.40;60.90;;;;;;5087573;28;20397;-87
2022/07/18 09:55:54;;;;;;;5.78;0.77;;;26.50;57.90;;;;;;5070426;28;20514;-88
2022/07/18 09:58:25;;;;;;;2.30;0.93;;;26.60;57.70;;;;;;5106916;28;20387;-88
2022/07/18 10:00:52;;;;;;;3.95;1.00;;;26.70;56.40;;;;;;5088016;28;20135;-87
2022/07/18 10:03:19;;;;;;;2.67;0.80;;;26.80;55.70;;;;;;5105189;28;20044;-87
2022/07/18 10:05:47;;;;;;;1.98;0.88;;;26.90;54.30;;;;;;5088510;28;20051;-88
2022/07/18 10:08:15;;;;;;;3.65;0.55;;;26.90;53.80;;;;;;5106164;28;20043;-87
2022/07/18 10:10:43;;;;;;;2.45;0.90;;;27.00;53.40;;;;;;5105980;28;20518;-88
2022/07/18 10:13:12;;;;;;;2.67;0.90;;;27.10;53.70;;;;;;5111350;28;20071;-88
2022/07/18 10:15:40;;;;;;;3.05;0.90;;;27.20;53.70;;;;;;5095425;28;20044;-87
2022/07/18 10:18:08;;;;;;;2.47;0.82;;;27.30;53.50;;;;;;5117012;28;20036;-88
2022/07/18 10:20:38;;;;;;;6.50;1.42;;;27.40;52.10;;;;;;5088885;28;20044;-88
2022/07/18 10:23:09;;;;;;;5.03;1.40;;;27.30;50.80;;;;;;5105071;28;20043;-87
2022/07/18 10:25:36;;;;;;;2.55;1.02;;;27.40;50.50;;;;;;5105321;28;20072;-88
2022/07/18 10:28:04;;;;;;;6.63;1.83;;;27.40;51.20;;;;;;5104462;28;20051;-88
2022/07/18 10:30:31;;;;;;;4.57;1.50;;;27.40;51.30;;;;;;5103729;28;20044;-89
2022/07/18 10:32:57;;;;;;;2.42;0.90;;;27.50;50.80;;;;;;5087059;28;20055;-88
2022/07/18 10:36:00;;;;;;;6.28;1.73;;;27.50;50.40;;;;;;5103799;28;20043;-89
2022/07/18 10:38:26;;;;;;;4.30;1.67;;;27.50;49.50;;;;;;5086561;28;20044;-88
2022/07/18 10:41:01;;;;;;;3.17;1.85;;;27.50;51.00;;;;;;5070580;28;20043;-88
2022/07/18 10:43:30;;;;;;;4.07;1.35;;;27.50;49.50;;;;;;5103614;28;20367;-88
2022/07/18 10:45:57;;;;;;;4.00;0.90;;;27.60;50.40;;;;;;5087616;28;20047;-89
2022/07/18 10:48:35;;;;;;;2.47;1.08;;;27.70;50.60;;;;;;5070370;28;20436;-88
2022/07/18 10:51:06;;;;;;;2.15;1.00;;;27.80;50.00;;;;;;5088148;28;20068;-87
2022/07/18 10:53:53;;;;;;;3.85;1.48;;;28.00;50.10;;;;;;5103688;28;20044;-87
2022/07/18 10:56:39;;;;;;;3.45;1.50;;;28.10;48.70;;;;;;5103478;28;20402;-87
2022/07/18 10:59:19;;;;;;;2.75;1.60;;;28.20;47.10;;;;;;5070161;28;20043;-87
2022/07/18 11:01:51;;;;;;;4.18;1.45;;;28.40;47.70;;;;;;5087337;28;20189;-87
2022/07/18 11:04:27;;;;;;;4.95;1.50;;;28.50;47.00;;;;;;5094332;28;20047;-87
2022/07/18 11:06:55;;;;;;;3.60;1.30;;;28.40;46.60;;;;;;5089354;28;20039;-87
2022/07/18 11:09:40;;;;;;;5.05;1.98;;;28.50;47.80;;;;;;5086173;28;20063;-87
2022/07/18 11:12:26;;;;;;;4.28;1.50;;;28.60;46.40;;;;;;5087818;28;20402;-87
2022/07/18 11:15:13;;;;;;;3.00;1.50;;;28.60;45.90;;;;;;5070088;28;20469;-88
2022/07/18 11:17:51;;;;;;;5.63;1.70;;;28.70;46.10;;;;;;5086339;28;20044;-87
2022/07/18 11:20:27;;;;;;;4.05;1.48;;;28.70;45.10;;;;;;5087625;28;20541;-87
2022/07/18 11:22:54;;;;;;;3.33;1.98;;;28.90;45.60;;;;;;5090182;28;20092;-87
2022/07/18 11:25:20;;;;;;;7.65;1.88;;;29.00;45.50;;;;;;5106884;28;20040;-93
2022/07/18 11:27:46;;;;;;;4.25;1.73;;;29.10;45.10;;;;;;5091033;28;20516;-91
2022/07/18 11:30:22;;;;;;;2.50;1.73;;;29.30;44.40;;;;;;5090065;28;20048;-92
2022/07/18 11:32:48;;;;;;;6.50;2.15;;;29.50;43.50;;;;;;5074106;28;20059;-91
2022/07/18 11:35:20;;;;;;;4.20;1.80;;;29.60;43.20;;;;;;5073655;28;20047;-91
2022/07/18 11:37:50;;;;;;;11.10;2.67;;;29.30;42.10;;;;;;5091107;28;20085;-91
2022/07/18 11:40:17;;;;;;;3.03;2.05;;;29.60;41.80;;;;;;5090519;28;20510;-91
2022/07/18 11:42:42;;;;;;;3.75;2.10;;;29.70;42.40;;;;;;5106925;28;20043;-91
2022/07/18 11:45:12;;;;;;;3.85;1.98;;;29.90;41.90;;;;;;5108209;28;20130;-92
2022/07/18 11:47:49;;;;;;;4.60;2.50;;;30.00;41.50;;;;;;5107011;28;20039;-91
2022/07/18 11:50:17;;;;;;;5.78;2.38;;;30.10;41.00;;;;;;5090606;28;20071;-91
2022/07/18 11:52:44;;;;;;;3.55;2.38;;;30.10;41.70;;;;;;5090118;28;20047;-91
2022/07/18 11:55:14;;;;;;;3.55;2.15;;;30.20;41.90;;;;;;5073748;28;20044;-90
2022/07/18 11:57:40;;;;;;;5.50;1.63;;;30.20;41.40;;;;;;5073697;28;20040;-91
2022/07/18 12:00:18;;;;;;;4.43;2.30;;;30.20;42.50;;;;;;5089743;28;20062;-90
2022/07/18 12:03:09;;;;;;;6.47;1.88;;;30.20;41.00;;;;;;5090667;28;20043;-92
2022/07/18 12:05:40;;;;;;;6.70;2.28;;;30.30;42.00;;;;;;5090278;28;20402;-90
2022/07/18 12:08:26;;;;;;;3.08;1.88;;;30.30;41.30;;;;;;5106959;28;20071;-91
2022/07/18 12:11:09;;;;;;;4.82;2.08;;;30.40;39.70;;;;;;5073723;28;20474;-91
2022/07/18 12:13:46;;;;;;;2.83;1.90;;;30.50;40.80;;;;;;5089890;28;20046;-92
2022/07/18 12:16:35;;;;;;;4.82;2.03;;;30.50;41.30;;;;;;5090121;28;20055;-90
2022/07/18 12:19:21;;;;;;;2.88;2.13;;;30.60;42.00;;;;;;5106282;28;20048;-91
2022/07/18 12:21:54;;;;;;;2.47;1.80;;;30.70;40.80;;;;;;5088964;28;20054;-90
2022/07/18 12:24:24;;;;;;;3.55;2.05;;;30.70;41.00;;;;;;5090631;28;20378;-91
2022/07/18 12:27:13;;;;;;;2.30;1.90;;;30.70;40.70;;;;;;5089614;28;20518;-91
2022/07/18 12:30:02;;;;;;;3.20;2.05;;;30.90;39.70;;;;;;5089545;28;20040;-89
2022/07/18 12:32:53;;;;;;;2.90;1.88;;;31.00;39.30;;;;;;5089214;28;20094;-90
2022/07/18 12:35:34;;;;;;;3.58;2.30;;;31.00;39.70;;;;;;5089129;28;20054;-90
2022/07/18 12:38:07;;;;;;;4.20;2.22;;;31.00;39.20;;;;;;5106187;28;20043;-90
2022/07/18 12:40:53;;;;;;;3.45;2.00;;;31.10;39.30;;;;;;5089243;28;20048;-91
2022/07/18 12:43:30;;;;;;;4.35;2.67;;;31.20;38.90;;;;;;5088838;28;20058;-90
2022/07/18 12:45:58;;;;;;;4.32;2.10;;;31.20;38.70;;;;;;5089682;28;20511;-91
2022/07/18 12:48:27;;;;;;;3.97;2.30;;;31.20;40.00;;;;;;5089506;28;20554;-91
2022/07/18 12:51:02;;;;;;;2.55;2.00;;;31.30;39.50;;;;;;5089564;28;20044;-92
2022/07/18 12:53:30;;;;;;;2.92;2.03;;;31.40;39.40;;;;;;5089461;28;20039;-90
2022/07/18 12:55:56;;;;;;;4.25;1.85;;;31.40;39.40;;;;;;5088992;28;20047;-90
2022/07/18 12:58:21;;;;;;;4.55;2.70;;;31.50;39.40;;;;;;5094682;28;20043;-90
2022/07/18 13:00:48;;;;;;;3.38;2.03;;;31.60;39.80;;;;;;5093330;28;20189;-90